Axtell, Utah
Current Conditions -  °F | °C
As of 3:35 AM on Friday 21 Nov 2014 (Local Time) from KDTA Reporting Station
Clear Clear  
Wind Chill: 20°   Ceiling: Unl
Heat Index: 26°   Visibility: 10mi
Dew Point: 17°   Wind: 5mph
Humidity: 70%   Direction: 40°NE
Pressure: 30"   Gusts: NA
Location:  39.06°N, 111.82°W
Report Text: KDTA 211035Z AUTO 04004KT 10SM CLR M03/M08 A3000 RMK AO1 T10341082
Loading
Personal Weather Stations






























Interactive Weather Map New forecast layout! Learn more

10-Day Weather Forecast

Advertisements
Track Severe Weather on mobile